Time;durP1;ratioP1;P1;durP2;ratioP2;P2;SDS_P1;SDS_P2;PMS_P1;PMS_P2;Temp;Humidity;BMP_temperature;BMP_pressure;BME280_temperature;BME280_humidity;BME280_pressure;Samples;Min_cycle;Max_cycle;Signal;HPM_P1;HPM_P2
2022/12/08 00:03:52;;;;;;;4.65;2.67;;;;;;;16.84;53.96;96216.03;10478542;28;20064;-29
2022/12/08 00:14:12;;;;;;;4.65;3.00;;;;;;;16.78;53.99;96200.84;10473368;28;20040;-30
2022/12/08 00:19:12;;;;;;;3.60;2.47;;;;;;;16.77;53.65;96190.78;10482051;28;20624;-31
2022/12/08 00:24:13;;;;;;;4.23;2.37;;;;;;;16.78;53.18;96191.59;10474888;28;20036;-29
2022/12/08 00:29:14;;;;;;;3.45;2.42;;;;;;;16.79;53.46;96184.84;10476589;28;20040;-30
2022/12/08 00:34:15;;;;;;;4.65;2.50;;;;;;;16.82;52.56;96179.78;10480923;28;20040;-29
2022/12/08 00:39:16;;;;;;;4.90;2.20;;;;;;;16.80;52.79;96179.78;10478326;28;20130;-31
2022/12/08 00:44:17;;;;;;;4.07;2.45;;;;;;;16.81;52.69;96173.06;10476682;28;20032;-29
2022/12/08 00:49:18;;;;;;;4.70;2.75;;;;;;;16.80;52.85;96163.78;10483101;28;20040;-29
2022/12/08 00:54:19;;;;;;;3.28;2.10;;;;;;;16.80;52.53;96168.81;10474060;28;20032;-29
2022/12/08 00:59:20;;;;;;;3.67;2.50;;;;;;;16.77;52.63;96163.78;10481021;28;20043;-30
2022/12/08 01:04:20;;;;;;;2.77;1.97;;;;;;;16.75;52.45;96160.44;10475730;28;20036;-30
2022/12/08 01:09:21;;;;;;;2.70;2.05;;;;;;;16.76;52.90;96152.00;10485410;28;20295;-29
2022/12/08 01:14:21;;;;;;;3.03;2.10;;;;;;;16.78;52.42;96148.63;10483929;28;20456;-29
2022/12/08 01:19:21;;;;;;;2.63;1.80;;;;;;;16.77;52.34;96143.56;10472561;28;20040;-29
2022/12/08 01:24:22;;;;;;;3.43;2.23;;;;;;;16.75;52.46;96138.50;10477498;28;20287;-29
2022/12/08 01:29:22;;;;;;;3.22;1.92;;;;;;;16.77;52.30;96144.41;10473416;28;20280;-29
2022/12/08 01:34:23;;;;;;;2.80;1.80;;;;;;;16.70;52.38;96134.31;10480202;28;20433;-30
2022/12/08 01:39:23;;;;;;;2.53;1.93;;;;;;;16.78;52.43;96146.09;10475756;28;20296;-29
2022/12/08 01:44:23;;;;;;;2.57;2.07;;;;;;;16.82;52.06;96146.94;10481643;28;20712;-29
2022/12/08 01:49:31;;;;;;;3.70;1.80;;;;;;;16.82;52.35;96139.34;10490102;28;20360;-29
2022/12/08 01:54:38;;;;;;;3.38;1.42;;;;;;;16.81;52.90;96140.19;10490339;28;20051;-29
2022/12/08 01:59:43;;;;;;;1.90;1.48;;;;;;;16.79;52.15;96146.91;10479110;28;20238;-29
2022/12/08 02:04:43;;;;;;;2.08;1.60;;;;;;;16.82;52.20;96146.94;10477063;28;20025;-31
2022/12/08 02:09:45;;;;;;;3.55;1.80;;;;;;;16.77;52.28;96136.84;10484647;28;20032;-30
2022/12/08 02:14:45;;;;;;;2.38;1.70;;;;;;;16.77;52.13;96137.69;10483684;28;20032;-29
2022/12/08 02:20:00;;;;;;;1.83;1.60;;;;;;;16.77;52.30;96125.88;10507643;28;20028;-29
2022/12/08 02:25:19;;;;;;;2.22;1.50;;;;;;;16.69;52.43;96114.13;10480496;28;20559;-29
2022/12/08 02:30:25;;;;;;;2.95;1.90;;;;;;;16.81;52.13;96130.09;10491450;28;20115;-29
2022/12/08 02:35:31;;;;;;;2.00;1.60;;;;;;;16.82;52.10;96119.13;10489797;28;20041;-29
2022/12/08 02:40:43;;;;;;;1.80;1.30;;;;;;;16.85;52.13;96119.09;10475488;28;20539;-31
2022/12/08 02:45:49;;;;;;;1.95;1.20;;;;;;;16.82;52.05;96112.38;10477234;28;20037;-29
2022/12/08 02:50:49;;;;;;;1.83;1.25;;;;;;;16.79;52.20;96101.44;10493600;28;20040;-30
2022/12/08 02:56:17;;;;;;;2.57;1.80;;;;;;;16.81;51.90;96104.81;10484435;28;20443;-29
2022/12/08 03:01:37;;;;;;;2.63;1.20;;;;;;;16.83;52.49;96108.16;10481700;28;20041;-29
2022/12/08 03:06:37;;;;;;;2.80;1.55;;;;;;;16.80;52.70;96103.09;10478829;28;20113;-30
2022/12/08 03:11:54;;;;;;;2.20;1.50;;;;;;;16.81;52.77;96104.81;10480862;28;20401;-30
2022/12/08 03:16:57;;;;;;;2.58;1.45;;;;;;;16.78;52.89;96099.75;10485819;28;20503;-30
2022/12/08 03:22:02;;;;;;;5.03;1.27;;;;;;;16.77;52.37;96101.44;10477131;28;20484;-29
2022/12/08 03:27:18;;;;;;;1.98;1.55;;;;;;;16.75;52.35;96092.19;10491191;28;20146;-29
2022/12/08 03:32:19;;;;;;;1.65;1.00;;;;;;;16.76;52.42;96091.34;10482835;28;20539;-29
2022/12/08 03:37:20;;;;;;;2.70;1.05;;;;;;;16.77;52.27;96081.22;10482849;28;20110;-29
2022/12/08 03:42:20;;;;;;;3.08;1.10;;;;;;;16.70;51.93;96071.13;10485972;28;20504;-30
2022/12/08 03:47:20;;;;;;;2.13;1.52;;;;;;;16.77;51.76;96077.84;10469497;28;20033;-29
2022/12/08 03:52:21;;;;;;;1.57;1.10;;;;;;;16.75;51.82;96064.38;10488210;28;20045;-30
2022/12/08 03:57:21;;;;;;;1.27;0.90;;;;;;;16.74;51.69;96052.59;10478369;28;20065;-30
2022/12/08 04:02:22;;;;;;;1.07;0.70;;;;;;;16.74;51.59;96052.59;10481507;28;20290;-29
2022/12/08 04:07:22;;;;;;;2.63;0.87;;;;;;;16.70;51.30;96045.03;10483995;28;20639;-29
2022/12/08 04:12:22;;;;;;;1.83;0.83;;;;;;;16.76;51.55;96050.88;10481271;28;20033;-31
2022/12/08 04:17:23;;;;;;;1.87;1.00;;;;;;;16.78;51.10;96054.25;10500009;28;20038;-29
2022/12/08 04:22:23;;;;;;;1.20;0.90;;;;;;;16.78;51.10;96044.13;10483928;28;20476;-29
2022/12/08 04:27:23;;;;;;;1.13;0.77;;;;;;;16.73;51.28;96035.75;10481009;28;20637;-29
2022/12/08 04:32:24;;;;;;;1.23;0.87;;;;;;;16.69;50.74;96023.97;10477225;28;20036;-28
2022/12/08 04:37:24;;;;;;;1.70;0.87;;;;;;;16.71;51.31;96032.38;10479716;28;20279;-29
2022/12/08 04:42:24;;;;;;;2.43;0.80;;;;;;;16.70;51.21;96027.34;10475809;28;20036;-31
2022/12/08 04:47:25;;;;;;;0.80;0.80;;;;;;;16.72;50.76;96023.09;10464765;28;20041;-29
2022/12/08 04:52:25;;;;;;;1.47;0.97;;;;;;;16.73;51.28;96025.63;10478303;28;20094;-29
2022/12/08 04:57:26;;;;;;;2.00;1.67;;;;;;;16.74;50.95;96027.31;10482236;28;20363;-29
2022/12/08 05:02:26;;;;;;;1.40;0.70;;;;;;;16.79;50.84;96023.06;10466412;28;20298;-30
2022/12/08 05:07:26;;;;;;;1.10;0.77;;;;;;;16.82;50.09;96020.53;10480891;28;20049;-29
2022/12/08 05:12:27;;;;;;;1.95;0.60;;;;;;;16.85;50.11;96015.47;10479267;28;20399;-30
2022/12/08 05:17:27;;;;;;;0.83;0.70;;;;;;;16.91;49.16;96016.25;10471892;28;20024;-30
2022/12/08 05:22:28;;;;;;;1.43;0.83;;;;;;;16.92;49.61;96022.16;10483664;28;20033;-29
2022/12/08 05:27:28;;;;;;;0.80;0.60;;;;;;;16.89;49.87;96012.91;10480335;28;20294;-30
2022/12/08 05:32:28;;;;;;;0.60;0.50;;;;;;;16.93;49.22;96016.25;10477518;28;20291;-29
2022/12/08 05:37:29;;;;;;;1.20;0.50;;;;;;;16.94;48.99;96006.16;10472363;28;20112;-29
2022/12/08 05:42:29;;;;;;;3.70;1.05;;;;;;;17.00;48.20;96002.75;10480263;28;20274;-29
2022/12/08 05:47:30;;;;;;;1.63;0.75;;;;;;;16.97;48.47;96000.22;10469644;28;20040;-29
2022/12/08 05:52:31;;;;;;;2.90;1.00;;;;;;;16.91;49.58;95995.22;10486099;28;20468;-29
2022/12/08 05:57:31;;;;;;;4.03;1.17;;;;;;;16.90;47.01;96006.19;10475020;28;20047;-29
2022/12/08 06:02:31;;;;;;;2.23;1.27;;;;;;;16.91;48.26;96000.28;10466785;28;20028;-30
2022/12/08 06:07:32;;;;;;;3.73;1.87;;;;;;;16.80;48.15;95986.81;10475108;28;20039;-30
2022/12/08 06:12:32;;;;;;;10.23;3.23;;;;;;;16.81;48.82;96008.75;10469398;28;20492;-30
2022/12/08 06:17:33;;;;;;;11.50;5.10;;;;;;;16.89;49.40;96017.16;10479047;28;20639;-30
2022/12/08 06:22:34;;;;;;;10.75;4.55;;;;;;;16.89;48.86;96014.63;10468622;28;20351;-29
2022/12/08 06:27:34;;;;;;;11.90;4.82;;;;;;;16.86;49.33;96012.94;10479079;28;20543;-30
2022/12/08 06:32:35;;;;;;;11.07;5.22;;;;;;;16.85;48.88;96015.47;10484153;28;20040;-29
2022/12/08 06:37:36;;;;;;;14.50;6.40;;;;;;;16.83;49.56;96017.16;10491679;28;20067;-29
2022/12/08 06:42:46;;;;;;;12.25;4.90;;;;;;;16.38;43.25;96013.97;10477348;28;20030;-29
2022/12/08 06:47:46;;;;;;;15.60;6.00;;;;;;;16.59;48.03;96012.22;10479293;28;20119;-29
2022/12/08 06:52:48;;;;;;;14.73;5.87;;;;;;;16.67;47.43;96015.56;10491358;28;20128;-29
2022/12/08 06:57:49;;;;;;;10.10;4.93;;;;;;;16.57;47.96;95980.22;10486341;28;20032;-29
2022/12/08 07:02:49;;;;;;;9.33;5.07;;;;;;;16.72;48.29;96007.94;10477685;28;20036;-29
2022/12/08 07:07:50;;;;;;;10.15;4.80;;;;;;;16.75;48.09;96003.72;10484403;28;20040;-29
2022/12/08 07:12:50;;;;;;;11.07;5.00;;;;;;;16.77;48.23;96000.34;10483126;28;20036;-28
2022/12/08 07:17:50;;;;;;;10.03;4.27;;;;;;;16.76;48.38;96005.41;10484885;28;20295;-29
2022/12/08 07:22:52;;;;;;;7.97;3.85;;;;;;;16.77;48.61;96005.41;10476042;28;20036;-29
2022/12/08 07:27:52;;;;;;;10.40;4.05;;;;;;;16.77;48.82;96014.66;10485450;28;20209;-30
2022/12/08 07:32:52;;;;;;;10.32;3.42;;;;;;;16.76;48.77;96012.97;10486932;28;20063;-30
2022/12/08 07:37:53;;;;;;;6.50;3.57;;;;;;;16.77;48.53;96017.19;10482916;28;20032;-30
2022/12/08 07:42:53;;;;;;;9.27;4.27;;;;;;;16.74;48.91;96022.25;10476201;28;20042;-29
2022/12/08 07:47:53;;;;;;;8.37;4.57;;;;;;;16.74;49.10;96017.22;10469245;28;20036;-29
2022/12/08 07:52:54;;;;;;;5.20;3.33;;;;;;;16.72;48.95;96008.81;10487848;28;20032;-30
2022/12/08 07:57:54;;;;;;;5.83;3.30;;;;;;;16.70;49.11;96000.34;10479444;28;20028;-29
2022/12/08 08:02:54;;;;;;;5.63;3.03;;;;;;;16.74;48.98;96002.88;10481629;28;20024;-29
2022/12/08 08:07:55;;;;;;;4.67;3.20;;;;;;;16.73;48.48;96000.38;10481020;28;20086;-29
2022/12/08 08:12:58;;;;;;;4.40;2.90;;;;;;;16.73;48.26;96000.38;10478412;28;20033;-29
2022/12/08 08:17:59;;;;;;;5.63;2.85;;;;;;;16.72;48.41;95990.25;10483303;28;20403;-30
2022/12/08 08:22:59;;;;;;;4.47;2.83;;;;;;;16.73;48.46;95992.78;10474990;28;20032;-29
2022/12/08 08:28:00;;;;;;;5.68;2.58;;;;;;;16.73;48.33;95987.72;10486205;28;20289;-29
2022/12/08 08:33:00;;;;;;;4.87;2.60;;;;;;;16.73;48.28;95996.13;10480923;28;20025;-29
2022/12/08 08:38:01;;;;;;;4.63;2.35;;;;;;;16.75;48.47;95994.44;10480399;28;20287;-29
2022/12/08 08:43:04;;;;;;;4.00;2.50;;;;;;;16.77;48.41;95996.13;10485518;28;20039;-30
2022/12/08 08:48:04;;;;;;;4.25;2.55;;;;;;;16.77;48.07;95994.44;10466126;28;20028;-28
2022/12/08 08:53:05;;;;;;;3.97;2.60;;;;;;;16.78;48.27;95993.59;10485981;28;20033;-30
2022/12/08 08:58:05;;;;;;;3.53;2.33;;;;;;;16.75;48.08;95994.44;10481051;28;20385;-29
2022/12/08 09:03:05;;;;;;;2.90;2.00;;;;;;;16.71;48.60;95986.88;10475721;28;20309;-29
2022/12/08 09:08:07;;;;;;;3.43;2.20;;;;;;;16.73;48.16;95972.56;10478150;28;20334;-29
2022/12/08 09:13:07;;;;;;;3.50;2.08;;;;;;;16.74;47.98;95967.47;10475073;28;20344;-29
2022/12/08 09:18:07;;;;;;;3.10;1.90;;;;;;;16.74;48.24;95964.13;10480869;28;20450;-30
2022/12/08 09:23:08;;;;;;;3.27;2.03;;;;;;;16.74;48.15;95961.59;10469759;28;20396;-30
2022/12/08 09:28:08;;;;;;;5.70;2.43;;;;;;;16.77;47.78;95960.75;10482697;28;20455;-29
2022/12/08 09:33:09;;;;;;;2.50;1.70;;;;;;;16.74;48.23;95961.59;10478778;28;20400;-29
2022/12/08 09:38:09;;;;;;;2.70;2.00;;;;;;;16.73;48.20;95958.22;10482939;28;20035;-29
2022/12/08 09:43:18;;;;;;;3.47;2.27;;;;;;;16.70;48.09;95949.81;10472570;28;20024;-29
2022/12/08 09:48:28;;;;;;;3.33;2.20;;;;;;;16.72;48.19;95943.09;10472016;28;20040;-29
2022/12/08 09:53:38;;;;;;;3.60;1.95;;;;;;;16.73;48.17;95936.34;10481692;28;20082;-30
2022/12/08 09:58:50;;;;;;;3.08;1.88;;;;;;;16.72;48.25;95922.88;10469986;28;20039;-30
2022/12/08 10:03:53;;;;;;;2.85;1.90;;;;;;;16.73;48.26;95924.53;10484782;28;20551;-29
2022/12/08 10:09:12;;;;;;;2.38;1.52;;;;;;;16.72;48.05;95917.81;10488013;28;20068;-29
2022/12/08 10:14:48;;;;;;;1.95;1.50;;;;;;;16.70;48.36;95913.63;10480488;28;20032;-30
2022/12/08 10:19:56;;;;;;;2.67;1.55;;;;;;;16.68;48.55;95906.03;10412392;28;20048;-30
2022/12/08 10:25:02;;;;;;;2.42;1.88;;;;;;;16.55;48.50;95874.09;10481242;28;20078;-29
2022/12/08 10:30:15;;;;;;;2.23;1.50;;;;;;;16.72;48.27;95897.59;10488061;28;20103;-29
2022/12/08 10:35:18;;;;;;;2.35;1.05;;;;;;;16.67;48.16;95884.13;10479982;28;20395;-31
2022/12/08 10:40:19;;;;;;;2.63;1.83;;;;;;;16.70;48.39;95883.28;10484487;28;20044;-29
2022/12/08 10:45:24;;;;;;;2.03;1.30;;;;;;;16.74;48.30;95876.50;10480110;28;20037;-30
2022/12/08 10:50:43;;;;;;;2.55;1.63;;;;;;;16.70;48.06;95863.06;10480364;28;20040;-29
2022/12/08 10:56:03;;;;;;;3.30;1.45;;;;;;;16.60;46.72;95857.22;10485268;28;20545;-29
2022/12/08 11:01:13;;;;;;;4.60;2.05;;;;;;;16.63;47.69;95848.78;10469147;28;20044;-29
2022/12/08 11:06:20;;;;;;;3.75;2.50;;;;;;;16.65;47.55;95850.47;10484548;28;20114;-29
2022/12/08 11:11:35;;;;;;;4.10;2.53;;;;;;;16.54;44.58;95844.63;10481649;28;20082;-29
2022/12/08 11:16:36;;;;;;;9.07;2.58;;;;;;;16.46;47.49;95823.63;10477258;28;20032;-30
2022/12/08 11:21:37;;;;;;;5.45;3.42;;;;;;;16.57;47.83;95824.41;10489867;28;20056;-29
2022/12/08 11:26:37;;;;;;;6.15;3.03;;;;;;;16.59;47.60;95820.19;10496455;28;20112;-29
2022/12/08 11:31:42;;;;;;;4.40;2.72;;;;;;;16.63;47.83;95811.72;10480856;28;20059;-29
2022/12/08 11:36:43;;;;;;;4.15;2.55;;;;;;;16.70;47.02;95813.34;10487627;28;20559;-30
2022/12/08 11:41:45;;;;;;;34.30;14.82;;;;;;;16.73;48.58;95809.97;10475700;28;20108;-29
2022/12/08 11:46:55;;;;;;;28.63;15.90;;;;;;;16.72;48.10;95811.66;10471872;28;20047;-29
2022/12/08 11:52:04;;;;;;;23.95;13.85;;;;;;;16.69;48.08;95801.56;10479019;28;20044;-29
2022/12/08 11:57:10;;;;;;;27.38;14.52;;;;;;;16.71;46.72;95804.91;10487420;28;20039;-29
2022/12/08 12:02:14;;;;;;;26.60;15.17;;;;;;;16.70;48.07;95802.41;10470636;28;20492;-29
2022/12/08 12:07:18;;;;;;;37.40;19.90;;;;;;;16.68;48.18;95799.91;10484982;28;20032;-30
2022/12/08 12:13:03;;;;;;;36.05;19.30;;;;;;;16.77;47.74;95790.56;10474086;28;20024;-29
2022/12/08 12:18:18;;;;;;;31.52;19.02;;;;;;;16.73;48.40;95792.28;10482430;28;20040;-30
2022/12/08 12:23:38;;;;;;;32.72;19.00;;;;;;;16.77;47.73;95770.34;10473359;28;20032;-29
2022/12/08 12:28:45;;;;;;;32.33;16.48;;;;;;;16.76;46.90;95760.22;10480889;28;20127;-30
2022/12/08 12:33:46;;;;;;;35.88;19.05;;;;;;;16.74;48.20;95767.81;10480286;28;20067;-29
2022/12/08 12:39:07;;;;;;;43.88;22.33;;;;;;;16.69;48.23;95776.28;10476640;28;20126;-30
2022/12/08 12:44:22;;;;;;;36.58;20.13;;;;;;;16.71;48.11;95767.00;10477187;28;20029;-29
2022/12/08 12:49:38;;;;;;;29.42;17.65;;;;;;;16.75;48.09;95769.50;10481488;28;20046;-29
2022/12/08 12:55:01;;;;;;;31.08;16.95;;;;;;;16.75;47.26;95761.09;10480743;28;20036;-29
2022/12/08 13:00:01;;;;;;;28.55;16.15;;;;;;;16.72;47.79;95752.69;10471854;28;20040;-30
2022/12/08 13:05:19;;;;;;;30.67;15.07;;;;;;;16.79;47.67;95762.72;10485871;28;20040;-29
2022/12/08 13:10:25;;;;;;;25.10;14.65;;;;;;;16.79;47.33;95767.78;10480817;28;20298;-29
2022/12/08 13:15:33;;;;;;;23.35;13.48;;;;;;;16.74;47.27;95764.47;10477224;28;20724;-29
2022/12/08 13:20:41;;;;;;;21.48;12.70;;;;;;;16.70;47.37;95757.75;10481995;28;20040;-29
2022/12/08 13:25:42;;;;;;;24.48;13.63;;;;;;;16.71;48.17;95756.91;10476529;28;20055;-29
2022/12/08 13:30:48;;;;;;;22.83;13.40;;;;;;;16.74;47.69;95754.34;10481775;28;20047;-30
2022/12/08 13:36:04;;;;;;;19.80;11.73;;;;;;;16.74;47.69;95754.34;10497036;28;20155;-29
2022/12/08 13:41:20;;;;;;;22.52;12.27;;;;;;;16.74;47.54;95734.97;10468723;28;20029;-30
2022/12/08 13:46:32;;;;;;;20.92;11.27;;;;;;;16.77;47.10;95738.34;10477961;28;20036;-29
2022/12/08 13:51:45;;;;;;;18.00;10.55;;;;;;;16.74;47.37;95734.13;10485505;28;20036;-30
2022/12/08 13:56:47;;;;;;;17.40;10.40;;;;;;;16.71;47.85;95741.72;10472666;28;20087;-29
2022/12/08 14:01:49;;;;;;;20.30;10.85;;;;;;;16.73;47.69;95752.69;10470092;28;20486;-30
2022/12/08 14:06:54;;;;;;;14.57;8.57;;;;;;;16.79;46.77;95742.50;10479727;28;20542;-30
2022/12/08 14:12:05;;;;;;;17.73;10.70;;;;;;;16.77;47.69;95744.22;10456651;28;20526;-29
2022/12/08 14:17:11;;;;;;;20.20;9.70;;;;;;;16.79;47.28;95735.78;10479806;28;20415;-29
2022/12/08 14:22:15;;;;;;;16.23;8.30;;;;;;;16.79;47.38;95737.44;10468338;28;20104;-30
2022/12/08 14:27:18;;;;;;;12.05;8.20;;;;;;;16.81;47.11;95725.66;10484233;28;20040;-29
2022/12/08 14:32:24;;;;;;;13.98;8.00;;;;;;;16.82;47.65;95729.84;10475939;28;20040;-29
2022/12/08 14:37:28;;;;;;;13.00;7.80;;;;;;;16.79;47.29;95732.38;10487512;28;20396;-29
2022/12/08 14:42:29;;;;;;;11.70;7.00;;;;;;;16.80;47.42;95729.00;10489417;28;20041;-29
2022/12/08 14:47:32;;;;;;;11.30;6.40;;;;;;;16.81;47.10;95730.72;10479945;28;20028;-29
2022/12/08 14:52:32;;;;;;;11.10;6.85;;;;;;;16.81;47.18;95725.66;10490821;28;20041;-29
2022/12/08 14:57:34;;;;;;;9.95;6.72;;;;;;;16.82;47.12;95733.22;10477530;28;20036;-31
2022/12/08 15:02:45;;;;;;;8.75;5.65;;;;;;;16.77;47.20;95736.63;10476380;28;20029;-29
2022/12/08 15:07:52;;;;;;;15.48;8.95;;;;;;;16.88;48.31;95737.34;10478051;28;20511;-29
2022/12/08 15:13:19;;;;;;;21.20;10.95;;;;;;;16.98;49.33;95733.91;10478833;28;20048;-30
2022/12/08 15:18:30;;;;;;;24.27;11.70;;;;;;;16.87;50.07;95733.16;10475577;28;20535;-30
2022/12/08 15:23:38;;;;;;;19.17;9.43;;;;;;;16.86;48.30;95714.66;10485242;28;20036;-30
2022/12/08 15:28:38;;;;;;;19.48;9.10;;;;;;;16.90;48.06;95725.56;10482401;28;20032;-29
2022/12/08 15:33:38;;;;;;;23.30;13.13;;;;;;;16.90;50.20;95720.50;10477089;28;20024;-30
2022/12/08 15:38:39;;;;;;;18.43;11.13;;;;;;;16.95;49.71;95709.50;10473535;28;20038;-29
2022/12/08 15:43:39;;;;;;;25.20;12.83;;;;;;;17.01;51.14;95701.84;10485026;28;20032;-29
2022/12/08 15:48:40;;;;;;;24.67;11.10;;;;;;;16.98;50.68;95701.06;10467150;28;20032;-32
2022/12/08 15:53:41;;;;;;;19.05;9.75;;;;;;;17.04;48.55;95711.94;10482725;28;20033;-29
2022/12/08 15:58:41;;;;;;;19.15;9.88;;;;;;;17.12;49.08;95717.75;10478572;28;20152;-29
2022/12/08 16:03:42;;;;;;;25.17;11.10;;;;;;;17.17;48.85;95710.09;10478363;28;20040;-30
2022/12/08 16:08:42;;;;;;;17.70;8.60;;;;;;;17.05;48.62;95710.22;10473890;28;20121;-29
2022/12/08 16:13:52;;;;;;;29.08;11.68;;;;;;;16.93;52.65;95705.31;10479015;28;20040;-28
2022/12/08 16:18:52;;;;;;;23.42;11.85;;;;;;;16.92;52.61;95698.56;10486799;28;20044;-29
2022/12/08 16:23:53;;;;;;;18.60;11.23;;;;;;;16.92;51.99;95689.28;10476606;28;20032;-29
2022/12/08 16:28:53;;;;;;;21.80;11.40;;;;;;;16.88;51.77;95687.66;10483274;28;20044;-29
2022/12/08 16:33:53;;;;;;;17.70;9.50;;;;;;;16.79;52.08;95676.78;10479267;28;20044;-29
2022/12/08 16:38:54;;;;;;;18.90;10.57;;;;;;;16.84;51.86;95675.06;10473092;28;20124;-29
2022/12/08 16:43:54;;;;;;;16.37;8.90;;;;;;;16.82;51.53;95672.53;10473416;28;20037;-29
2022/12/08 16:48:57;;;;;;;18.02;9.88;;;;;;;16.83;51.76;95675.91;10478306;28;20055;-29
2022/12/08 16:53:58;;;;;;;18.98;9.48;;;;;;;16.84;51.59;95670.00;10479414;28;20041;-29
2022/12/08 16:58:58;;;;;;;15.57;8.83;;;;;;;16.82;51.45;95667.50;10476691;28;20041;-28
2022/12/08 17:03:59;;;;;;;14.57;8.48;;;;;;;16.84;51.63;95675.06;10482752;28;20032;-29
2022/12/08 17:08:59;;;;;;;14.43;8.03;;;;;;;16.81;51.85;95672.56;10473815;28;20408;-29
2022/12/08 17:13:59;;;;;;;11.97;8.33;;;;;;;16.82;51.00;95671.72;10474056;28;20317;-31
2022/12/08 17:19:00;;;;;;;13.27;8.30;;;;;;;16.83;51.17;95683.50;10484229;28;20060;-29
2022/12/08 17:24:00;;;;;;;12.63;7.93;;;;;;;16.83;51.07;95691.09;10468616;28;20032;-30
2022/12/08 17:29:02;;;;;;;12.87;7.67;;;;;;;16.78;51.52;95685.22;10479435;28;20043;-30
2022/12/08 17:34:09;;;;;;;15.48;7.15;;;;;;;16.83;51.24;95691.09;10471577;28;20033;-29
2022/12/08 17:39:10;;;;;;;12.52;6.78;;;;;;;16.89;51.08;95693.56;10481936;28;20090;-31
2022/12/08 17:44:16;;;;;;;11.48;7.47;;;;;;;16.81;51.31;95677.63;10479775;28;20060;-30
2022/12/08 17:49:23;;;;;;;10.87;6.50;;;;;;;16.78;50.60;95677.66;10481165;28;20032;-29
2022/12/08 17:54:24;;;;;;;12.05;6.78;;;;;;;16.76;51.08;95681.88;10480407;28;20066;-30
2022/12/08 17:59:26;;;;;;;13.02;7.18;;;;;;;16.78;50.63;95677.66;10476417;28;20036;-29
2022/12/08 18:04:27;;;;;;;9.02;6.55;;;;;;;16.80;50.43;95675.94;10484855;28;20079;-30
2022/12/08 18:09:30;;;;;;;11.88;6.47;;;;;;;16.80;50.15;95681.00;10483131;28;20546;-29
2022/12/08 18:14:30;;;;;;;11.30;6.93;;;;;;;16.82;50.67;95684.38;10478859;28;20040;-29
2022/12/08 18:19:30;;;;;;;9.43;6.20;;;;;;;16.85;50.59;95676.72;10480634;28;20600;-29
2022/12/08 18:24:31;;;;;;;15.03;6.83;;;;;;;16.82;50.84;95679.31;10487131;28;20110;-29
2022/12/08 18:29:31;;;;;;;12.57;7.00;;;;;;;16.84;50.52;95675.06;10484522;28;20057;-29
2022/12/08 18:34:32;;;;;;;10.10;6.15;;;;;;;16.85;50.75;95676.72;10480551;28;20319;-29
2022/12/08 18:39:34;;;;;;;10.55;6.03;;;;;;;16.82;50.44;95664.13;10485757;28;20049;-30
2022/12/08 18:44:34;;;;;;;8.50;5.32;;;;;;;16.82;50.38;95651.50;10478998;28;20036;-30
2022/12/08 18:49:34;;;;;;;8.87;5.90;;;;;;;16.84;48.84;95644.72;10490485;28;20032;-29
2022/12/08 18:54:36;;;;;;;11.33;6.30;;;;;;;16.89;49.87;95640.47;10483677;28;20044;-29
2022/12/08 18:59:37;;;;;;;9.73;5.93;;;;;;;16.91;49.72;95642.09;10474790;28;20095;-29
2022/12/08 19:04:37;;;;;;;7.57;5.33;;;;;;;16.90;49.07;95635.38;10483404;28;20059;-29
2022/12/08 19:09:38;;;;;;;8.02;5.22;;;;;;;16.88;49.21;95633.72;10479967;28;20107;-29
2022/12/08 19:14:39;;;;;;;7.70;4.45;;;;;;;16.92;48.26;95648.84;10482664;28;20059;-29
2022/12/08 19:19:40;;;;;;;8.25;5.45;;;;;;;16.93;48.52;95632.00;10486460;28;20499;-30
2022/12/08 19:24:40;;;;;;;6.17;4.93;;;;;;;16.89;48.04;95617.72;10480563;28;20037;-30
2022/12/08 19:29:41;;;;;;;8.00;4.70;;;;;;;16.92;48.69;95627.78;10485707;28;20305;-29
2022/12/08 19:34:41;;;;;;;10.93;5.10;;;;;;;16.88;48.49;95616.03;10475950;28;20439;-30
2022/12/08 19:45:10;;;;;;;8.15;5.38;;;;;;;16.88;48.86;95606.75;10472486;28;20107;-30
2022/12/08 19:55:32;;;;;;;9.70;4.47;;;;;;;16.85;49.37;95611.00;10478987;28;20032;-29
2022/12/08 20:00:35;;;;;;;8.18;5.20;;;;;;;16.91;48.26;95610.97;10470859;28;20070;-30
2022/12/08 20:05:36;;;;;;;5.93;4.25;;;;;;;16.91;47.29;95600.84;10477754;28;20028;-30
2022/12/08 20:10:39;;;;;;;4.45;3.85;;;;;;;16.94;46.73;95590.69;10482076;28;20047;-30
2022/12/08 20:15:40;;;;;;;5.03;3.97;;;;;;;16.88;48.22;95596.66;10478605;28;20070;-29
2022/12/08 20:20:42;;;;;;;6.88;4.47;;;;;;;16.83;48.15;95602.63;10477120;28;20496;-32
2022/12/08 20:25:44;;;;;;;6.50;4.97;;;;;;;16.79;48.39;95593.38;10461202;28;20036;-30
2022/12/08 20:30:47;;;;;;;7.22;4.40;;;;;;;16.91;48.20;95600.84;10475165;28;20500;-30
2022/12/08 20:35:57;;;;;;;9.02;4.60;;;;;;;16.83;48.11;95587.47;10471785;28;20044;-30
2022/12/08 20:40:58;;;;;;;9.68;4.95;;;;;;;16.85;48.65;95599.22;10480881;28;20090;-30
2022/12/08 20:45:58;;;;;;;7.40;4.57;;;;;;;16.83;48.19;95605.16;10475527;28;20041;-30
2022/12/08 20:50:58;;;;;;;6.87;4.03;;;;;;;16.79;48.62;95608.53;10482551;28;20059;-29
2022/12/08 20:55:59;;;;;;;6.32;4.38;;;;;;;16.77;49.12;95612.78;10479429;28;20428;-30
2022/12/08 21:00:59;;;;;;;6.53;4.13;;;;;;;16.78;49.45;95589.19;10471817;28;20039;-30
2022/12/08 21:06:00;;;;;;;7.45;4.00;;;;;;;16.79;48.70;95599.28;10487131;28;20682;-30
2022/12/08 21:11:01;;;;;;;7.17;4.20;;;;;;;16.88;47.95;95595.81;10490957;28;20024;-30
2022/12/08 21:16:01;;;;;;;15.25;4.40;;;;;;;16.84;46.74;95576.50;10495450;28;20075;-29
2022/12/08 21:21:04;;;;;;;5.65;4.18;;;;;;;17.03;44.48;95585.50;10482373;28;20143;-30
2022/12/08 21:26:17;;;;;;;6.20;3.95;;;;;;;16.99;44.30;95577.13;10483041;28;20408;-29
2022/12/08 21:31:24;;;;;;;5.75;4.45;;;;;;;16.97;44.34;95560.28;10496371;28;20036;-30
2022/12/08 21:36:25;;;;;;;6.40;3.83;;;;;;;17.02;42.65;95568.69;10501540;28;20036;-29
2022/12/08 21:46:45;;;;;;;6.30;3.55;;;;;;;16.86;46.31;95568.03;10496706;28;20040;-29
2022/12/08 21:51:45;;;;;;;4.65;3.55;;;;;;;16.81;47.09;95564.72;10484002;28;20028;-29
2022/12/08 21:56:47;;;;;;;5.20;3.30;;;;;;;16.80;47.83;95557.13;10491009;28;20044;-30
2022/12/08 22:01:47;;;;;;;4.20;3.40;;;;;;;16.79;48.04;95555.47;10481097;28;20132;-30
2022/12/08 22:06:48;;;;;;;4.73;3.23;;;;;;;16.75;48.81;95548.81;10489151;28;20162;-30
2022/12/08 22:11:48;;;;;;;3.75;3.10;;;;;;;16.73;48.77;95535.34;10485555;28;20040;-28
2022/12/08 22:16:49;;;;;;;3.90;2.83;;;;;;;16.75;48.73;95538.69;10488933;28;20051;-29
2022/12/08 22:21:49;;;;;;;3.87;3.20;;;;;;;16.75;48.02;95534.47;10482007;28;20029;-31
2022/12/08 22:26:50;;;;;;;3.70;2.70;;;;;;;16.76;48.77;95525.19;10482228;28;20037;-30
2022/12/08 22:31:50;;;;;;;5.93;3.03;;;;;;;16.75;48.66;95533.63;10490197;28;20040;-30
2022/12/08 22:36:50;;;;;;;4.47;3.03;;;;;;;16.75;48.66;95526.88;10490626;28;20290;-30
2022/12/08 22:41:51;;;;;;;4.63;3.10;;;;;;;16.77;48.79;95542.03;10475652;28;20040;-30
2022/12/08 22:46:51;;;;;;;4.35;3.05;;;;;;;16.76;48.75;95530.25;10473893;28;20036;-30
2022/12/08 22:51:52;;;;;;;3.92;2.88;;;;;;;16.77;48.95;95521.81;10486780;28;20040;-30
2022/12/08 22:56:52;;;;;;;4.27;2.80;;;;;;;16.76;48.72;95510.03;10488153;28;20051;-29
2022/12/08 23:01:53;;;;;;;3.65;2.78;;;;;;;16.77;48.79;95501.59;10471638;28;20037;-30
2022/12/08 23:06:53;;;;;;;3.97;2.70;;;;;;;16.78;49.40;95498.22;10487382;28;20106;-29
2022/12/08 23:11:54;;;;;;;3.13;2.50;;;;;;;16.77;48.93;95486.44;10483924;28;20294;-30
2022/12/08 23:16:54;;;;;;;3.22;2.90;;;;;;;16.71;49.39;95481.44;10480344;28;20677;-29
2022/12/08 23:21:55;;;;;;;4.03;3.43;;;;;;;16.73;49.39;95495.75;10495845;28;20052;-30
2022/12/08 23:26:55;;;;;;;6.67;2.87;;;;;;;16.77;49.24;95488.94;10479357;28;20029;-30
2022/12/08 23:31:55;;;;;;;3.22;2.40;;;;;;;16.77;49.33;95480.56;10492502;28;20341;-30
2022/12/08 23:36:56;;;;;;;3.70;2.50;;;;;;;16.77;49.26;95486.44;10480983;28;20097;-30
2022/12/08 23:41:56;;;;;;;5.50;2.93;;;;;;;16.77;49.70;95461.16;10477341;28;20039;-30
2022/12/08 23:46:57;;;;;;;4.27;2.63;;;;;;;16.75;49.50;95463.69;10482011;28;20048;-30